Time;durP1;ratioP1;P1;durP2;ratioP2;P2;SDS_P1;SDS_P2;PMS_P1;PMS_P2;Temp;Humidity;BMP_temperature;BMP_pressure;BME280_temperature;BME280_humidity;BME280_pressure;Samples;Min_cycle;Max_cycle;Signal;HPM_P1;HPM_P2
2021/11/30 00:01:50;;;;;;;0.20;0.20;;;3.40;99.90;;;;;;5072516;28;20128;-82
2021/11/30 00:04:17;;;;;;;0.10;0.10;;;3.40;99.90;;;;;;5072163;28;20037;-82
2021/11/30 00:06:46;;;;;;;0.10;0.10;;;3.50;99.90;;;;;;5073183;28;20132;-82
2021/11/30 00:12:01;;;;;;;0.10;0.10;;;3.40;99.90;;;;;;5072415;28;20052;-81
2021/11/30 00:14:28;;;;;;;0.10;0.10;;;3.40;99.90;;;;;;5089247;28;20135;-82
2021/11/30 00:16:57;;;;;;;0.10;0.10;;;3.80;99.90;;;;;;5071966;28;20037;-81
2021/11/30 00:19:25;;;;;;;0.10;0.10;;;3.60;99.90;;;;;;5056339;28;20057;-81
2021/11/30 00:21:52;;;;;;;0.10;0.10;;;3.50;99.90;;;;;;5071394;28;20041;-81
2021/11/30 00:24:19;;;;;;;0.10;0.10;;;3.80;99.90;;;;;;5055427;28;20471;-81
2021/11/30 00:26:45;;;;;;;0.20;0.20;;;4.00;99.90;;;;;;5055467;28;20048;-81
2021/11/30 00:29:12;;;;;;;0.10;0.10;;;3.70;99.90;;;;;;5038462;28;20132;-82
2021/11/30 00:31:39;;;;;;;0.10;0.10;;;3.90;99.90;;;;;;5055799;28;20124;-80
2021/11/30 00:34:06;;;;;;;0.10;0.10;;;3.60;99.90;;;;;;5055287;28;20052;-80
2021/11/30 00:36:32;;;;;;;0.20;0.20;;;4.50;99.90;;;;;;5072125;28;20041;-82
2021/11/30 00:38:59;;;;;;;0.10;0.10;;;3.60;99.90;;;;;;5055351;28;20052;-82
2021/11/30 00:41:26;;;;;;;0.20;0.20;;;3.70;99.90;;;;;;5055625;28;20789;-81
2021/11/30 00:43:54;;;;;;;0.10;0.10;;;3.70;99.90;;;;;;5055207;28;20087;-81
2021/11/30 00:46:33;;;;;;;0.20;0.20;;;3.90;99.90;;;;;;5055019;28;20041;-80
2021/11/30 00:49:00;;;;;;;0.10;0.10;;;3.70;99.90;;;;;;5071417;28;20045;-81
2021/11/30 00:51:27;;;;;;;0.10;0.10;;;3.80;99.90;;;;;;5056145;28;20033;-80
2021/11/30 00:53:54;;;;;;;0.17;0.17;;;3.80;99.90;;;;;;5055055;28;20567;-80
2021/11/30 00:56:21;;;;;;;0.10;0.10;;;4.40;99.90;;;;;;5054857;28;20067;-82
2021/11/30 00:58:49;;;;;;;0.10;0.10;;;3.80;99.90;;;;;;5055262;28;20432;-81
2021/11/30 01:01:16;;;;;;;0.10;0.10;;;3.80;99.90;;;;;;5055449;28;20037;-81
2021/11/30 01:03:43;;;;;;;0.20;0.20;;;3.80;99.90;;;;;;5055283;28;20524;-82
2021/11/30 01:06:09;;;;;;;0.20;0.20;;;3.80;99.90;;;;;;5054883;28;20076;-81
2021/11/30 01:08:36;;;;;;;0.10;0.10;;;4.40;99.90;;;;;;5038916;28;20055;-80
2021/11/30 01:11:03;;;;;;;0.20;0.20;;;3.80;99.90;;;;;;5054816;28;20524;-80
2021/11/30 01:13:33;;;;;;;0.10;0.10;;;3.90;99.90;;;;;;5071239;28;20889;-80
2021/11/30 01:16:02;;;;;;;0.20;0.20;;;4.10;99.90;;;;;;5071267;28;20047;-81
2021/11/30 01:18:29;;;;;;;0.20;0.20;;;4.00;99.90;;;;;;5055266;28;20378;-81
2021/11/30 01:20:55;;;;;;;0.10;0.10;;;4.20;99.90;;;;;;5071561;28;20048;-80
2021/11/30 01:23:25;;;;;;;0.10;0.10;;;3.80;99.90;;;;;;5070893;28;20412;-80
2021/11/30 01:25:52;;;;;;;0.10;0.10;;;4.30;99.90;;;;;;5071383;28;20044;-80
2021/11/30 01:28:19;;;;;;;0.10;0.10;;;4.10;99.90;;;;;;5070820;28;20555;-81
2021/11/30 01:30:46;;;;;;;0.10;0.10;;;3.80;99.90;;;;;;5054475;28;20044;-81
2021/11/30 01:33:12;;;;;;;0.10;0.10;;;3.70;99.90;;;;;;5054060;28;20044;-80
2021/11/30 01:35:42;;;;;;;0.20;0.20;;;3.70;99.90;;;;;;5054266;28;20490;-80
2021/11/30 01:38:09;;;;;;;0.10;0.10;;;3.60;99.90;;;;;;5087043;28;20545;-80
2021/11/30 01:40:36;;;;;;;0.10;0.10;;;3.60;99.90;;;;;;5054634;28;20147;-80
2021/11/30 01:43:05;;;;;;;0.10;0.10;;;3.60;99.90;;;;;;5037878;28;20462;-80
2021/11/30 01:51:00;;;;;;;0.75;0.32;;;3.50;99.90;;;;;;5055791;28;20512;-81
2021/11/30 01:53:27;;;;;;;0.20;0.20;;;3.60;99.90;;;;;;5070552;28;20037;-80
2021/11/30 01:55:54;;;;;;;0.10;0.10;;;3.60;99.90;;;;;;5070218;28;20820;-80
2021/11/30 01:58:21;;;;;;;0.10;0.10;;;4.00;99.90;;;;;;5053759;28;20086;-81
2021/11/30 02:00:47;;;;;;;0.10;0.10;;;3.40;99.90;;;;;;5070276;28;20557;-82
2021/11/30 02:03:14;;;;;;;0.13;0.13;;;3.90;99.90;;;;;;5054106;28;20068;-81
2021/11/30 02:05:42;;;;;;;0.20;0.20;;;3.50;99.90;;;;;;5054582;28;20589;-81
2021/11/30 02:08:09;;;;;;;0.10;0.10;;;3.50;99.90;;;;;;5070016;28;20099;-81
2021/11/30 02:10:37;;;;;;;0.10;0.10;;;4.10;99.90;;;;;;5070237;28;20446;-81
2021/11/30 02:13:05;;;;;;;0.20;0.20;;;4.00;99.90;;;;;;5070158;28;20086;-82
2021/11/30 02:15:38;;;;;;;0.10;0.10;;;3.80;99.90;;;;;;5069506;28;20405;-81
2021/11/30 02:18:11;;;;;;;0.10;0.10;;;3.70;99.90;;;;;;5054569;28;20090;-82
2021/11/30 02:20:41;;;;;;;0.10;0.10;;;3.60;99.90;;;;;;5067272;28;20057;-81
2021/11/30 02:23:16;;;;;;;0.10;0.10;;;3.50;99.90;;;;;;5044441;28;20485;-81
2021/11/30 02:25:43;;;;;;;0.10;0.10;;;4.30;99.90;;;;;;5020475;28;20429;-81
2021/11/30 02:28:10;;;;;;;0.20;0.20;;;3.60;99.90;;;;;;5017173;28;20045;-81
2021/11/30 02:30:37;;;;;;;0.10;0.10;;;4.40;99.90;;;;;;5017532;28;20037;-81
2021/11/30 02:33:04;;;;;;;0.10;0.10;;;3.60;99.90;;;;;;5033814;28;20448;-81
2021/11/30 02:35:30;;;;;;;0.10;0.10;;;3.60;99.90;;;;;;5001460;28;20099;-81
2021/11/30 02:37:59;;;;;;;0.20;0.20;;;3.60;99.90;;;;;;5017499;28;20037;-81
2021/11/30 02:40:27;;;;;;;0.10;0.10;;;3.60;99.90;;;;;;5017443;28;20041;-81
2021/11/30 02:42:53;;;;;;;0.10;0.10;;;3.70;99.90;;;;;;5033407;28;20033;-81
2021/11/30 02:45:20;;;;;;;6.72;1.00;;;3.70;99.90;;;;;;5032868;28;20506;-82
2021/11/30 02:47:47;;;;;;;0.20;0.20;;;3.70;99.90;;;;;;5033938;28;20041;-81
2021/11/30 02:50:14;;;;;;;0.10;0.10;;;3.70;99.90;;;;;;5001373;28;20509;-82
2021/11/30 02:52:41;;;;;;;0.20;0.20;;;3.70;99.90;;;;;;5017684;28;20037;-81
2021/11/30 02:55:08;;;;;;;0.20;0.20;;;3.70;99.90;;;;;;5033741;28;20117;-81
2021/11/30 02:57:34;;;;;;;0.20;0.20;;;4.60;99.90;;;;;;5033369;28;20050;-81
2021/11/30 03:00:05;;;;;;;0.10;0.10;;;3.70;99.90;;;;;;5017469;28;20037;-81
2021/11/30 03:02:35;;;;;;;0.20;0.20;;;3.80;99.90;;;;;;5034108;28;20079;-81
2021/11/30 03:05:04;;;;;;;0.10;0.10;;;3.70;99.90;;;;;;5033553;28;20099;-81
2021/11/30 03:07:38;;;;;;;0.10;0.10;;;3.70;99.90;;;;;;5017221;28;20041;-81
2021/11/30 03:10:15;;;;;;;0.20;0.20;;;3.70;99.90;;;;;;5033143;28;20037;-81
2021/11/30 03:12:42;;;;;;;0.10;0.10;;;3.80;99.90;;;;;;5033264;28;20041;-82
2021/11/30 03:15:16;;;;;;;0.10;0.10;;;3.70;99.90;;;;;;5033376;28;20128;-81
2021/11/30 03:17:44;;;;;;;0.10;0.10;;;3.80;99.90;;;;;;5049917;28;20045;-81
2021/11/30 03:20:11;;;;;;;0.10;0.10;;;3.90;99.90;;;;;;5001049;28;20056;-81
2021/11/30 03:22:38;;;;;;;0.20;0.20;;;3.80;99.90;;;;;;5017166;28;20049;-82
2021/11/30 03:25:08;;;;;;;0.10;0.10;;;3.80;99.90;;;;;;5017236;28;20091;-81
2021/11/30 03:27:35;;;;;;;0.10;0.10;;;3.80;99.90;;;;;;5049480;28;20076;-81
2021/11/30 03:30:04;;;;;;;0.10;0.10;;;3.80;99.90;;;;;;5050151;28;20073;-81
2021/11/30 03:35:01;;;;;;;0.20;0.20;;;3.80;99.90;;;;;;5017886;28;20045;-81
2021/11/30 03:37:27;;;;;;;0.10;0.10;;;4.30;99.90;;;;;;5033137;28;20125;-80
2021/11/30 03:39:54;;;;;;;0.10;0.10;;;3.90;99.90;;;;;;5017233;28;20507;-81
2021/11/30 03:42:22;;;;;;;0.10;0.10;;;4.30;99.90;;;;;;5032873;28;20129;-81
2021/11/30 03:44:49;;;;;;;0.10;0.10;;;3.90;99.90;;;;;;5001552;28;20128;-81
2021/11/30 03:47:16;;;;;;;0.20;0.20;;;4.00;99.90;;;;;;5049927;28;20048;-81
2021/11/30 03:49:43;;;;;;;0.10;0.10;;;4.20;99.90;;;;;;5033409;28;20052;-81
2021/11/30 03:52:10;;;;;;;0.10;0.10;;;4.10;99.90;;;;;;5049808;28;20041;-81
2021/11/30 03:54:37;;;;;;;0.10;0.10;;;4.20;99.90;;;;;;5017800;28;20124;-82
2021/11/30 03:57:04;;;;;;;0.10;0.10;;;4.10;99.90;;;;;;5020805;28;20049;-82
2021/11/30 03:59:31;;;;;;;0.10;0.10;;;4.10;99.90;;;;;;5036477;28;20168;-81
2021/11/30 04:01:58;;;;;;;0.10;0.10;;;4.40;99.90;;;;;;5020496;28;20097;-81
2021/11/30 04:04:26;;;;;;;0.20;0.20;;;5.20;99.90;;;;;;5003990;28;20041;-80
2021/11/30 04:06:56;;;;;;;0.10;0.10;;;4.20;99.90;;;;;;5004918;28;20524;-81
2021/11/30 04:09:24;;;;;;;0.10;0.10;;;4.30;99.90;;;;;;5036691;28;20585;-80
2021/11/30 04:11:51;;;;;;;0.10;0.10;;;4.20;99.90;;;;;;5037048;28;20064;-81
2021/11/30 04:14:18;;;;;;;0.10;0.10;;;4.30;99.90;;;;;;5036999;28;20072;-82
2021/11/30 04:16:46;;;;;;;0.10;0.10;;;4.30;99.90;;;;;;5036225;28;20034;-81
2021/11/30 04:19:13;;;;;;;0.20;0.20;;;4.40;99.90;;;;;;5036501;28;20049;-81
2021/11/30 04:21:40;;;;;;;0.10;0.10;;;4.40;99.90;;;;;;5019688;28;20227;-81
2021/11/30 04:24:07;;;;;;;0.10;0.10;;;4.50;99.90;;;;;;5004241;28;20124;-81
2021/11/30 04:26:34;;;;;;;0.10;0.10;;;4.80;99.90;;;;;;5020028;28;20119;-81
2021/11/30 04:29:01;;;;;;;0.10;0.10;;;4.60;99.90;;;;;;5020646;28;20044;-81
2021/11/30 04:31:29;;;;;;;0.10;0.10;;;4.60;99.90;;;;;;5020004;28;20041;-81
2021/11/30 04:33:56;;;;;;;0.10;0.10;;;4.60;99.90;;;;;;5020681;28;20509;-81
2021/11/30 04:36:23;;;;;;;0.10;0.10;;;5.20;99.90;;;;;;5036205;28;20045;-81
2021/11/30 04:38:50;;;;;;;0.15;0.15;;;5.20;99.90;;;;;;5035732;28;20126;-81
2021/11/30 04:41:16;;;;;;;0.10;0.10;;;4.70;99.90;;;;;;5036292;28;20045;-81
2021/11/30 04:43:43;;;;;;;0.10;0.10;;;5.20;99.90;;;;;;5019578;28;20048;-81
2021/11/30 04:46:25;;;;;;;0.15;0.15;;;4.80;99.90;;;;;;5036189;28;20156;-81
2021/11/30 04:48:57;;;;;;;0.10;0.10;;;4.90;99.90;;;;;;5021907;28;20037;-81
2021/11/30 04:51:30;;;;;;;0.10;0.10;;;4.90;99.90;;;;;;5020399;28;20160;-82
2021/11/30 04:53:57;;;;;;;0.10;0.10;;;5.00;99.90;;;;;;5035974;28;20502;-81
2021/11/30 04:56:24;;;;;;;0.10;0.10;;;5.00;99.90;;;;;;5035550;28;20045;-80
2021/11/30 04:58:51;;;;;;;0.10;0.10;;;5.10;99.90;;;;;;5035238;28;20087;-81
2021/11/30 05:01:19;;;;;;;0.10;0.10;;;5.20;99.90;;;;;;5019131;28;20029;-81
2021/11/30 05:03:47;;;;;;;0.17;0.17;;;5.10;99.90;;;;;;5035644;28;20045;-82
2021/11/30 05:06:14;;;;;;;0.10;0.10;;;5.20;99.90;;;;;;5034505;28;20045;-81
2021/11/30 05:08:41;;;;;;;0.10;0.10;;;5.20;99.90;;;;;;5019009;28;20038;-81
2021/11/30 05:11:09;;;;;;;0.10;0.10;;;5.20;99.90;;;;;;5019343;28;20046;-81
2021/11/30 05:13:36;;;;;;;0.10;0.10;;;5.50;99.90;;;;;;5034682;28;20048;-81
2021/11/30 05:16:03;;;;;;;0.10;0.10;;;5.40;99.90;;;;;;5029784;28;20053;-81
2021/11/30 05:18:30;;;;;;;0.10;0.10;;;5.40;99.90;;;;;;5021761;28;20040;-82
2021/11/30 05:20:59;;;;;;;0.10;0.10;;;5.50;99.90;;;;;;5025643;28;20406;-81
2021/11/30 05:23:28;;;;;;;0.20;0.20;;;5.60;99.90;;;;;;5019414;28;20030;-81
2021/11/30 05:25:57;;;;;;;0.10;0.10;;;5.80;99.90;;;;;;5018728;28;20080;-82
2021/11/30 05:28:24;;;;;;;0.10;0.10;;;5.60;99.90;;;;;;5018794;28;20044;-81
2021/11/30 05:30:51;;;;;;;0.10;0.10;;;5.60;99.90;;;;;;5019127;28;20084;-81
2021/11/30 05:33:18;;;;;;;0.10;0.10;;;5.60;99.90;;;;;;5034715;28;20548;-79
2021/11/30 05:35:45;;;;;;;0.10;0.10;;;5.70;99.90;;;;;;5018474;28;20036;-79
2021/11/30 05:38:11;;;;;;;0.10;0.10;;;6.40;99.90;;;;;;5051086;28;20087;-81
2021/11/30 05:40:41;;;;;;;0.10;0.10;;;5.70;99.90;;;;;;5034676;28;20042;-80
2021/11/30 05:43:09;;;;;;;0.10;0.10;;;5.80;99.90;;;;;;5019080;28;20041;-80
2021/11/30 05:45:36;;;;;;;0.10;0.10;;;6.00;99.90;;;;;;5050647;28;20037;-80
2021/11/30 05:48:03;;;;;;;0.10;0.10;;;5.90;99.90;;;;;;5002622;28;20053;-81
2021/11/30 05:50:30;;;;;;;0.10;0.10;;;6.00;99.90;;;;;;5019065;28;20076;-81
2021/11/30 05:52:58;;;;;;;0.10;0.10;;;6.30;99.90;;;;;;5018036;28;20048;-81
2021/11/30 05:55:26;;;;;;;0.10;0.10;;;6.40;99.90;;;;;;5018124;28;20042;-80
2021/11/30 05:57:52;;;;;;;0.10;0.10;;;6.40;99.90;;;;;;5033644;28;20077;-81
2021/11/30 06:00:20;;;;;;;0.10;0.10;;;6.50;99.90;;;;;;5034732;28;20127;-80
2021/11/30 06:02:56;;;;;;;0.10;0.10;;;6.50;99.90;;;;;;5018847;28;20096;-80
2021/11/30 06:05:24;;;;;;;0.10;0.10;;;6.50;99.90;;;;;;5050687;28;20040;-81
2021/11/30 06:07:52;;;;;;;0.10;0.10;;;6.60;99.90;;;;;;5017976;28;20045;-81
2021/11/30 06:10:19;;;;;;;0.10;0.10;;;6.70;99.90;;;;;;5034000;28;20055;-80
2021/11/30 06:12:46;;;;;;;0.10;0.10;;;6.70;99.90;;;;;;5033604;28;20045;-81
2021/11/30 06:15:13;;;;;;;0.10;0.10;;;6.70;99.90;;;;;;5050222;28;20050;-81
2021/11/30 06:17:39;;;;;;;0.20;0.20;;;6.70;99.90;;;;;;5017202;28;20042;-81
2021/11/30 06:20:09;;;;;;;0.10;0.10;;;6.80;99.90;;;;;;5001710;28;20054;-81
2021/11/30 06:22:37;;;;;;;0.10;0.10;;;6.80;99.90;;;;;;5049809;28;20120;-80
2021/11/30 06:25:06;;;;;;;0.10;0.10;;;6.90;99.90;;;;;;5033392;28;20033;-80
2021/11/30 06:27:33;;;;;;;0.10;0.10;;;6.90;99.90;;;;;;5033358;28;20441;-80
2021/11/30 06:30:00;;;;;;;0.10;0.10;;;6.90;99.90;;;;;;5017315;28;20068;-81
2021/11/30 06:32:27;;;;;;;0.10;0.10;;;6.90;99.90;;;;;;5017641;28;20037;-81
2021/11/30 06:34:53;;;;;;;0.10;0.10;;;6.90;99.90;;;;;;5033370;28;20102;-81
2021/11/30 06:37:21;;;;;;;0.08;0.08;;;7.00;99.90;;;;;;5017241;28;20084;-82
2021/11/30 06:39:48;;;;;;;0.10;0.10;;;7.00;99.90;;;;;;5033373;28;20045;-82
2021/11/30 06:42:14;;;;;;;0.10;0.10;;;7.00;99.90;;;;;;5033521;28;20409;-81
2021/11/30 06:44:41;;;;;;;0.10;0.10;;;7.00;99.90;;;;;;5000751;28;20044;-82
2021/11/30 06:47:08;;;;;;;0.10;0.10;;;7.00;99.90;;;;;;5033095;28;20072;-82
2021/11/30 06:49:35;;;;;;;0.10;0.10;;;7.00;99.90;;;;;;5009365;28;20052;-81
2021/11/30 06:52:02;;;;;;;0.10;0.10;;;7.00;99.90;;;;;;5028691;28;20048;-81
2021/11/30 06:54:28;;;;;;;0.10;0.10;;;6.90;99.90;;;;;;5034506;28;20037;-81
2021/11/30 06:56:55;;;;;;;0.10;0.10;;;7.00;99.90;;;;;;5005713;28;20053;-80
2021/11/30 06:59:24;;;;;;;0.10;0.10;;;7.00;99.90;;;;;;5052733;28;20040;-81
2021/11/30 07:01:51;;;;;;;0.10;0.10;;;7.00;99.90;;;;;;5041120;28;20516;-80
2021/11/30 07:04:18;;;;;;;0.10;0.10;;;7.00;99.90;;;;;;5040721;28;20037;-81
2021/11/30 07:09:32;;;;;;;0.10;0.10;;;7.00;99.90;;;;;;5052591;28;20048;-81
2021/11/30 07:14:49;;;;;;;0.00;0.00;;;7.00;99.90;;;;;;5060062;28;20053;-81
2021/11/30 07:17:16;;;;;;;0.10;0.10;;;7.00;99.90;;;;;;5025629;28;20405;-82
2021/11/30 07:19:43;;;;;;;0.10;0.10;;;7.00;99.90;;;;;;5035944;28;20773;-81
2021/11/30 07:22:10;;;;;;;0.10;0.10;;;7.00;99.90;;;;;;5035958;28;20045;-79
2021/11/30 07:24:36;;;;;;;0.10;0.10;;;6.90;99.90;;;;;;5036218;28;20041;-80
2021/11/30 07:27:03;;;;;;;0.10;0.10;;;7.00;99.90;;;;;;5026987;28;20056;-81
2021/11/30 07:29:30;;;;;;;0.10;0.10;;;6.90;99.90;;;;;;5049146;28;20080;-82
2021/11/30 07:31:59;;;;;;;0.05;0.05;;;6.90;99.90;;;;;;5035542;28;20087;-81
2021/11/30 07:34:25;;;;;;;0.10;0.10;;;6.90;99.90;;;;;;5036859;28;20081;-80
2021/11/30 07:36:52;;;;;;;0.10;0.10;;;6.90;99.90;;;;;;5021507;28;20529;-82
2021/11/30 07:39:19;;;;;;;0.10;0.10;;;6.90;99.90;;;;;;5035800;28;20494;-81
2021/11/30 07:41:45;;;;;;;0.03;0.03;;;6.90;99.90;;;;;;5005314;28;20113;-83
2021/11/30 07:44:12;;;;;;;0.00;0.00;;;6.90;99.90;;;;;;5020657;28;20096;-80
2021/11/30 07:46:39;;;;;;;0.10;0.10;;;6.90;99.90;;;;;;5051262;28;20072;-81
2021/11/30 07:49:06;;;;;;;0.00;0.00;;;6.90;99.90;;;;;;5011665;28;20029;-81
2021/11/30 07:51:33;;;;;;;0.10;0.10;;;6.90;99.90;;;;;;5037703;28;20125;-81
2021/11/30 07:54:00;;;;;;;0.10;0.10;;;7.10;99.90;;;;;;5055429;28;20126;-82
2021/11/30 07:56:27;;;;;;;0.10;0.10;;;6.90;99.90;;;;;;5042092;28;20037;-81
2021/11/30 07:58:54;;;;;;;0.00;0.00;;;6.90;99.90;;;;;;5071930;28;20409;-81
2021/11/30 08:01:20;;;;;;;0.10;0.10;;;6.90;99.90;;;;;;5039874;28;20036;-80
2021/11/30 08:03:47;;;;;;;0.10;0.10;;;6.80;99.90;;;;;;5024391;28;20517;-81
2021/11/30 08:06:14;;;;;;;0.10;0.10;;;6.90;99.90;;;;;;5019804;28;20048;-82
2021/11/30 08:08:41;;;;;;;0.10;0.10;;;6.90;99.90;;;;;;5066531;28;20037;-82
2021/11/30 08:11:08;;;;;;;0.10;0.10;;;6.90;99.90;;;;;;5055406;28;20045;-82
2021/11/30 08:13:36;;;;;;;0.10;0.10;;;6.90;99.90;;;;;;5039629;28;20073;-82
2021/11/30 08:16:03;;;;;;;0.00;0.00;;;6.90;99.90;;;;;;5031901;28;20041;-81
2021/11/30 08:18:30;;;;;;;0.10;0.10;;;6.80;99.90;;;;;;5035450;28;20482;-81
2021/11/30 08:20:57;;;;;;;0.00;0.00;;;6.90;99.90;;;;;;5030738;28;20041;-83
2021/11/30 08:23:23;;;;;;;0.10;0.10;;;6.80;99.90;;;;;;5031253;28;20095;-80
2021/11/30 08:25:50;;;;;;;0.10;0.10;;;6.80;99.90;;;;;;5027239;28;20044;-82
2021/11/30 08:28:17;;;;;;;0.03;0.03;;;6.90;99.90;;;;;;5034874;28;20048;-81
2021/11/30 08:30:46;;;;;;;0.10;0.10;;;6.90;99.90;;;;;;5032318;28;20037;-80
2021/11/30 08:33:13;;;;;;;0.10;0.10;;;6.90;99.90;;;;;;5019028;28;20518;-80
2021/11/30 08:35:40;;;;;;;0.10;0.10;;;6.90;99.90;;;;;;5032494;28;20071;-80
2021/11/30 08:38:07;;;;;;;0.10;0.10;;;6.90;99.90;;;;;;5038073;28;20484;-82
2021/11/30 08:40:34;;;;;;;0.10;0.10;;;6.90;99.90;;;;;;5037995;28;20622;-81
2021/11/30 08:43:01;;;;;;;0.10;0.10;;;6.90;99.90;;;;;;5037389;28;20039;-80
2021/11/30 08:45:28;;;;;;;0.00;0.00;;;7.00;99.90;;;;;;5038676;28;20063;-82
2021/11/30 08:47:55;;;;;;;0.10;0.10;;;6.90;99.90;;;;;;5038313;28;20041;-82
2021/11/30 08:50:22;;;;;;;0.10;0.10;;;6.90;99.90;;;;;;5054609;28;20076;-82
2021/11/30 08:52:50;;;;;;;0.10;0.10;;;6.90;99.90;;;;;;5070987;28;20111;-81
2021/11/30 08:55:17;;;;;;;0.10;0.10;;;7.20;99.90;;;;;;5054342;28;20099;-81
2021/11/30 08:57:44;;;;;;;0.00;0.00;;;7.00;99.90;;;;;;5059032;28;20057;-82
2021/11/30 09:00:21;;;;;;;0.10;0.10;;;7.00;99.90;;;;;;5039675;28;20029;-82
2021/11/30 09:02:48;;;;;;;0.00;0.00;;;7.00;99.90;;;;;;5071392;28;20036;-82
2021/11/30 09:05:19;;;;;;;0.10;0.10;;;7.00;99.90;;;;;;5035939;28;20041;-83
2021/11/30 09:07:45;;;;;;;0.10;0.10;;;7.10;99.90;;;;;;5062415;28;20040;-83
2021/11/30 09:10:14;;;;;;;0.03;0.03;;;7.10;99.90;;;;;;5005169;28;20033;-83
2021/11/30 09:12:41;;;;;;;0.10;0.10;;;7.10;99.90;;;;;;5034331;28;20077;-82
2021/11/30 09:15:09;;;;;;;0.08;0.08;;;7.10;99.90;;;;;;5050752;28;20072;-82
2021/11/30 09:17:37;;;;;;;0.08;0.08;;;7.10;99.90;;;;;;5051897;28;20132;-83
2021/11/30 09:20:06;;;;;;;0.08;0.08;;;7.20;99.90;;;;;;5050358;28;20096;-81
2021/11/30 09:22:33;;;;;;;0.10;0.10;;;7.20;99.90;;;;;;5035866;28;20128;-83
2021/11/30 09:25:03;;;;;;;0.10;0.10;;;7.20;99.90;;;;;;5041362;28;20140;-81
2021/11/30 09:27:30;;;;;;;0.10;0.10;;;7.20;99.90;;;;;;5051406;28;20087;-81
2021/11/30 09:29:59;;;;;;;0.10;0.10;;;7.20;99.90;;;;;;5034822;28;20071;-81
2021/11/30 09:32:30;;;;;;;0.10;0.10;;;7.20;99.90;;;;;;5070666;28;20041;-82
2021/11/30 09:35:01;;;;;;;0.00;0.00;;;7.10;99.90;;;;;;5049049;28;20063;-82
2021/11/30 09:37:29;;;;;;;0.10;0.10;;;7.20;99.90;;;;;;5070312;28;20051;-83
2021/11/30 09:39:58;;;;;;;0.00;0.00;;;7.20;99.90;;;;;;5037799;28;20033;-81
2021/11/30 09:42:24;;;;;;;0.10;0.10;;;7.20;99.90;;;;;;5046836;28;20066;-83
2021/11/30 09:44:53;;;;;;;0.10;0.10;;;7.20;99.90;;;;;;5036698;28;20123;-81
2021/11/30 09:47:21;;;;;;;0.10;0.10;;;7.30;99.90;;;;;;5053742;28;20516;-82
2021/11/30 09:49:48;;;;;;;0.00;0.00;;;7.30;99.90;;;;;;5035526;28;20417;-83
2021/11/30 09:52:15;;;;;;;0.10;0.10;;;7.30;99.90;;;;;;5036642;28;20444;-82
2021/11/30 09:54:41;;;;;;;0.10;0.10;;;7.30;99.90;;;;;;5086716;28;20036;-82
2021/11/30 09:57:08;;;;;;;0.10;0.10;;;7.30;99.90;;;;;;5024543;28;20500;-82
2021/11/30 09:59:35;;;;;;;0.00;0.00;;;7.20;99.90;;;;;;5031017;28;20033;-82
2021/11/30 10:02:02;;;;;;;0.00;0.00;;;7.30;99.90;;;;;;5032373;28;20042;-82
2021/11/30 10:04:28;;;;;;;0.10;0.10;;;7.30;99.90;;;;;;5030009;28;20039;-81
2021/11/30 10:06:55;;;;;;;0.10;0.10;;;7.30;99.90;;;;;;5049367;28;20049;-82
2021/11/30 10:09:24;;;;;;;0.00;0.00;;;7.30;99.90;;;;;;5033661;28;20072;-82
2021/11/30 10:12:02;;;;;;;0.10;0.10;;;7.30;99.90;;;;;;5046273;28;20129;-83
2021/11/30 10:14:35;;;;;;;0.00;0.00;;;7.20;99.90;;;;;;5050271;28;20037;-83
2021/11/30 10:17:10;;;;;;;0.10;0.10;;;7.30;99.90;;;;;;5070501;28;20079;-82
2021/11/30 10:19:39;;;;;;;0.00;0.00;;;7.30;99.90;;;;;;5070037;28;20053;-81
2021/11/30 10:22:06;;;;;;;0.10;0.10;;;7.30;99.90;;;;;;5082671;28;20047;-81
2021/11/30 10:24:33;;;;;;;0.10;0.10;;;7.30;99.90;;;;;;5069875;28;20041;-82
2021/11/30 10:27:00;;;;;;;0.00;0.00;;;7.40;99.90;;;;;;5074211;28;20047;-82
2021/11/30 10:29:29;;;;;;;0.00;0.00;;;7.40;99.90;;;;;;5036734;28;20076;-82
2021/11/30 10:31:56;;;;;;;0.10;0.10;;;7.30;99.90;;;;;;5046384;28;20405;-82
2021/11/30 10:34:28;;;;;;;0.00;0.00;;;7.30;99.90;;;;;;5069490;28;20110;-81
2021/11/30 10:37:13;;;;;;;0.00;0.00;;;7.30;99.90;;;;;;5087792;28;20060;-82
2021/11/30 10:39:41;;;;;;;0.10;0.10;;;7.30;99.90;;;;;;5041244;28;20041;-81
2021/11/30 10:42:15;;;;;;;0.10;0.10;;;7.30;99.90;;;;;;5065090;28;20038;-81
2021/11/30 10:44:44;;;;;;;0.10;0.10;;;7.30;99.90;;;;;;5066040;28;20025;-82
2021/11/30 10:47:14;;;;;;;0.10;0.10;;;7.30;99.90;;;;;;5041901;28;20048;-83
2021/11/30 10:50:21;;;;;;;0.10;0.10;;;7.30;99.90;;;;;;5062235;28;20520;-83
2021/11/30 10:52:50;;;;;;;;;;;7.30;99.90;;;;;;5047511;28;20099;-82
2021/11/30 10:55:18;;;;;;;0.10;0.10;;;7.30;99.90;;;;;;5016826;28;20057;-81
2021/11/30 10:57:47;;;;;;;0.10;0.10;;;7.30;99.90;;;;;;5016450;28;20565;-83
2021/11/30 11:00:16;;;;;;;0.10;0.10;;;7.30;99.90;;;;;;5032597;28;20053;-82
2021/11/30 11:03:00;;;;;;;0.00;0.00;;;7.30;99.90;;;;;;5036180;28;20037;-81
2021/11/30 11:05:31;;;;;;;0.10;0.10;;;7.30;99.90;;;;;;5060495;28;20109;-81
2021/11/30 11:08:13;;;;;;;0.10;0.10;;;7.30;99.90;;;;;;5054954;28;20521;-83
2021/11/30 11:10:46;;;;;;;0.10;0.10;;;7.40;99.90;;;;;;5047920;28;20045;-82
2021/11/30 11:13:16;;;;;;;0.10;0.10;;;7.40;99.90;;;;;;5073094;28;20132;-83
2021/11/30 11:15:43;;;;;;;0.10;0.10;;;7.50;99.90;;;;;;5059930;28;20042;-83
2021/11/30 11:18:28;;;;;;;0.10;0.10;;;7.50;99.90;;;;;;5036491;28;20042;-83
2021/11/30 11:21:12;;;;;;;0.10;0.10;;;7.50;99.90;;;;;;5053331;28;20049;-82
2021/11/30 11:23:44;;;;;;;0.00;0.00;;;7.40;99.90;;;;;;5036546;28;20588;-83
2021/11/30 11:26:25;;;;;;;0.10;0.10;;;7.50;99.90;;;;;;5048070;28;20044;-82
2021/11/30 11:28:54;;;;;;;0.10;0.10;;;7.40;99.90;;;;;;5058436;28;20056;-82
2021/11/30 11:31:22;;;;;;;0.00;0.00;;;7.40;99.90;;;;;;5072286;28;20078;-82
2021/11/30 11:33:50;;;;;;;0.00;0.00;;;7.40;99.90;;;;;;5039654;28;20045;-81
2021/11/30 11:36:18;;;;;;;0.10;0.10;;;7.60;99.90;;;;;;5035458;28;20151;-83
2021/11/30 11:38:45;;;;;;;0.10;0.10;;;7.40;99.90;;;;;;5029512;28;20041;-82
2021/11/30 11:41:12;;;;;;;0.10;0.10;;;7.40;99.90;;;;;;5064788;28;20489;-81
2021/11/30 11:43:41;;;;;;;0.10;0.10;;;7.40;99.90;;;;;;5052256;28;20041;-83
2021/11/30 11:46:13;;;;;;;0.10;0.10;;;7.40;99.90;;;;;;5039443;28;20029;-82
2021/11/30 11:48:40;;;;;;;0.10;0.10;;;7.40;99.90;;;;;;5079762;28;20063;-82
2021/11/30 11:51:10;;;;;;;0.10;0.10;;;7.70;99.90;;;;;;5055190;28;20033;-82
2021/11/30 11:53:51;;;;;;;0.10;0.10;;;7.50;99.90;;;;;;5055670;28;20067;-83
2021/11/30 11:56:23;;;;;;;0.00;0.00;;;7.40;99.90;;;;;;5065825;28;20049;-82
2021/11/30 11:59:09;;;;;;;0.10;0.10;;;7.40;99.90;;;;;;5055234;28;20395;-82
2021/11/30 12:01:38;;;;;;;0.10;0.10;;;7.40;99.90;;;;;;5055922;28;20123;-82
2021/11/30 12:04:18;;;;;;;0.10;0.10;;;7.40;99.90;;;;;;5039245;28;20406;-82
2021/11/30 12:06:58;;;;;;;0.10;0.10;;;7.40;99.90;;;;;;5048382;28;20056;-82
2021/11/30 12:09:32;;;;;;;0.10;0.10;;;7.40;99.90;;;;;;5044324;28;20123;-82
2021/11/30 12:12:01;;;;;;;0.00;0.00;;;7.40;99.90;;;;;;5068039;28;20600;-83
2021/11/30 12:14:41;;;;;;;0.10;0.10;;;7.40;99.90;;;;;;5047083;28;20513;-82
2021/11/30 12:17:17;;;;;;;0.10;0.10;;;7.50;99.90;;;;;;5052062;28;20033;-82
2021/11/30 12:19:48;;;;;;;;;;;7.50;99.90;;;;;;5035095;28;20065;-83
2021/11/30 12:22:44;;;;;;;0.10;0.10;;;7.40;99.90;;;;;;5050138;28;20300;-82
2021/11/30 12:25:26;;;;;;;0.10;0.10;;;7.40;99.90;;;;;;5044198;28;20052;-82
2021/11/30 12:27:55;;;;;;;0.10;0.10;;;7.40;99.90;;;;;;5080809;28;20049;-82
2021/11/30 12:30:36;;;;;;;0.10;0.10;;;7.40;99.90;;;;;;5054570;28;20116;-82
2021/11/30 12:33:12;;;;;;;0.08;0.08;;;7.30;99.90;;;;;;5036810;28;20045;-82
2021/11/30 12:36:06;;;;;;;0.00;0.00;;;7.30;99.90;;;;;;5066651;28;20045;-82
2021/11/30 12:38:59;;;;;;;0.10;0.10;;;7.30;99.90;;;;;;5064128;28;20577;-82
2021/11/30 12:41:40;;;;;;;0.10;0.10;;;7.30;99.90;;;;;;5034705;28;20045;-82
2021/11/30 12:44:09;;;;;;;0.10;0.10;;;7.20;99.90;;;;;;5064986;28;20043;-82
2021/11/30 12:46:43;;;;;;;0.10;0.10;;;7.20;99.90;;;;;;5054186;28;20091;-82
2021/11/30 12:49:25;;;;;;;0.10;0.10;;;7.20;99.90;;;;;;5049334;28;20039;-82
2021/11/30 12:52:20;;;;;;;0.10;0.10;;;7.00;99.90;;;;;;5065375;28;20120;-82
2021/11/30 12:55:00;;;;;;;0.10;0.10;;;6.90;99.90;;;;;;5071131;28;20043;-83
2021/11/30 12:57:32;;;;;;;0.10;0.10;;;6.80;99.90;;;;;;5050781;28;20038;-82
2021/11/30 13:00:18;;;;;;;0.10;0.10;;;6.70;99.90;;;;;;5050344;28;20116;-82
2021/11/30 13:02:47;;;;;;;0.10;0.10;;;6.70;99.90;;;;;;5055309;28;20048;-82
2021/11/30 13:05:15;;;;;;;0.03;0.03;;;6.60;99.90;;;;;;5059943;28;20041;-82
2021/11/30 13:07:48;;;;;;;0.10;0.10;;;6.90;99.90;;;;;;5054687;28;20043;-82
2021/11/30 13:10:32;;;;;;;0.10;0.10;;;6.60;99.90;;;;;;5070310;28;20063;-81
2021/11/30 13:13:07;;;;;;;0.10;0.10;;;6.50;99.90;;;;;;5070888;28;20048;-82
2021/11/30 13:15:46;;;;;;;0.10;0.10;;;6.50;99.90;;;;;;5070589;28;20178;-82
2021/11/30 13:18:12;;;;;;;0.10;0.10;;;6.50;99.90;;;;;;5068878;28;20115;-82
2021/11/30 13:20:39;;;;;;;0.10;0.10;;;6.60;99.90;;;;;;5025932;28;20175;-83
2021/11/30 13:23:06;;;;;;;0.10;0.10;;;6.50;99.90;;;;;;5052751;28;20110;-82
2021/11/30 13:25:36;;;;;;;0.10;0.10;;;6.50;99.90;;;;;;5017868;28;20107;-81